CheckWX is a tool to help pilots better visualize weather data.  It is not intended as a substitute for an official pre-flight weather briefing.

04:20:26 UTC

KGGE METAR
Georgetown County Airport
Georgetown, South Carolina, USA
Current

5 mins ago

KGGE 270415Z AUTO 22005KT 10SM CLR 25/23 A3003 RMK AO2
Observed
May-27 @ 04:15 UTC
Wind
  • 220° at 5 KTS
Visibility
10 SM
Flight Rules
VFR
Cloud Levels
  • Clear skies
Temperature
25°C / 77°F
Dewpoint
23°C / 73°F
Humidity
89%
Altimeter
30.03" Hg
Pressure
1016.92 hPa
Previous

25 mins ago

KGGE 270355Z AUTO 22004KT 10SM CLR 25/23 A3003 RMK AO2
Observed
May-27 @ 03:55 UTC
Wind
  • 220° at 4 KTS
Visibility
10 SM
Flight Rules
VFR
Cloud Levels
  • Clear skies
Temperature
25°C / 77°F
Dewpoint
23°C / 73°F
Humidity
89%
Altimeter
30.03" Hg
Pressure
1016.92 hPa
Previous

45 mins ago

KGGE 270335Z AUTO 22004KT 10SM CLR 25/23 A3003 RMK AO2
Observed
May-27 @ 03:35 UTC
Wind
  • 220° at 4 KTS
Visibility
10 SM
Flight Rules
VFR
Cloud Levels
  • Clear skies
Temperature
25°C / 77°F
Dewpoint
23°C / 73°F
Humidity
89%
Altimeter
30.03" Hg
Pressure
1016.92 hPa